sensor_id;sensor_type;location;lat;lon;timestamp;temperature;humidity
49124;DHT22;48506;48.202;16.274;2023-04-25T00:00:29;11.40;97.00
49124;DHT22;48506;48.202;16.274;2023-04-25T00:02:56;11.50;97.20
49124;DHT22;48506;48.202;16.274;2023-04-25T00:05:26;11.40;97.10
49124;DHT22;48506;48.202;16.274;2023-04-25T00:07:52;11.40;97.10
49124;DHT22;48506;48.202;16.274;2023-04-25T00:10:20;11.40;96.90
49124;DHT22;48506;48.202;16.274;2023-04-25T00:12:46;11.40;96.70
49124;DHT22;48506;48.202;16.274;2023-04-25T00:15:12;11.40;96.40
49124;DHT22;48506;48.202;16.274;2023-04-25T00:17:38;11.50;96.50
49124;DHT22;48506;48.202;16.274;2023-04-25T00:20:04;11.50;96.60
49124;DHT22;48506;48.202;16.274;2023-04-25T00:22:31;11.50;96.50
49124;DHT22;48506;48.202;16.274;2023-04-25T00:24:57;11.40;96.60
49124;DHT22;48506;48.202;16.274;2023-04-25T00:27:26;11.50;96.60
49124;DHT22;48506;48.202;16.274;2023-04-25T00:29:52;11.40;96.20
49124;DHT22;48506;48.202;16.274;2023-04-25T00:32:18;11.40;96.40
49124;DHT22;48506;48.202;16.274;2023-04-25T00:34:44;11.40;96.40
49124;DHT22;48506;48.202;16.274;2023-04-25T00:37:10;11.40;96.50
49124;DHT22;48506;48.202;16.274;2023-04-25T00:39:36;11.40;96.60
49124;DHT22;48506;48.202;16.274;2023-04-25T00:42:02;11.30;96.40
49124;DHT22;48506;48.202;16.274;2023-04-25T00:44:30;11.40;96.10
49124;DHT22;48506;48.202;16.274;2023-04-25T00:46:58;11.40;96.20
49124;DHT22;48506;48.202;16.274;2023-04-25T00:49:24;11.40;96.20
49124;DHT22;48506;48.202;16.274;2023-04-25T00:51:50;11.40;96.10
49124;DHT22;48506;48.202;16.274;2023-04-25T00:54:16;11.40;96.20
49124;DHT22;48506;48.202;16.274;2023-04-25T00:56:44;11.40;96.10
49124;DHT22;48506;48.202;16.274;2023-04-25T00:59:11;11.40;95.80
49124;DHT22;48506;48.202;16.274;2023-04-25T01:01:38;11.40;96.00
49124;DHT22;48506;48.202;16.274;2023-04-25T01:04:04;11.40;96.20
49124;DHT22;48506;48.202;16.274;2023-04-25T01:06:31;11.40;96.40
49124;DHT22;48506;48.202;16.274;2023-04-25T01:08:57;11.40;96.20
49124;DHT22;48506;48.202;16.274;2023-04-25T01:11:25;11.40;96.20
49124;DHT22;48506;48.202;16.274;2023-04-25T01:13:51;11.40;96.20
49124;DHT22;48506;48.202;16.274;2023-04-25T01:16:17;11.40;95.90
49124;DHT22;48506;48.202;16.274;2023-04-25T01:18:43;11.40;96.10
49124;DHT22;48506;48.202;16.274;2023-04-25T01:21:11;11.30;96.10
49124;DHT22;48506;48.202;16.274;2023-04-25T01:23:39;11.40;96.00
49124;DHT22;48506;48.202;16.274;2023-04-25T01:26:07;11.30;95.70
49124;DHT22;48506;48.202;16.274;2023-04-25T01:28:34;11.30;95.90
49124;DHT22;48506;48.202;16.274;2023-04-25T01:31:01;11.30;96.10
49124;DHT22;48506;48.202;16.274;2023-04-25T01:33:27;11.30;96.00
49124;DHT22;48506;48.202;16.274;2023-04-25T01:35:53;11.30;96.10
49124;DHT22;48506;48.202;16.274;2023-04-25T01:38:19;11.20;96.00
49124;DHT22;48506;48.202;16.274;2023-04-25T01:40:46;11.20;96.20
49124;DHT22;48506;48.202;16.274;2023-04-25T01:43:14;11.20;96.20
49124;DHT22;48506;48.202;16.274;2023-04-25T01:45:43;11.20;96.10
49124;DHT22;48506;48.202;16.274;2023-04-25T01:48:13;11.30;95.90
49124;DHT22;48506;48.202;16.274;2023-04-25T01:50:40;11.20;95.60
49124;DHT22;48506;48.202;16.274;2023-04-25T01:53:09;11.20;95.70
49124;DHT22;48506;48.202;16.274;2023-04-25T01:55:36;11.20;96.10
49124;DHT22;48506;48.202;16.274;2023-04-25T01:58:03;11.20;96.10
49124;DHT22;48506;48.202;16.274;2023-04-25T02:00:35;11.10;96.10
49124;DHT22;48506;48.202;16.274;2023-04-25T02:03:03;11.20;95.90
49124;DHT22;48506;48.202;16.274;2023-04-25T02:05:35;11.20;95.80
49124;DHT22;48506;48.202;16.274;2023-04-25T02:08:02;11.10;96.00
49124;DHT22;48506;48.202;16.274;2023-04-25T02:10:29;11.10;95.90
49124;DHT22;48506;48.202;16.274;2023-04-25T02:12:55;11.10;96.10
49124;DHT22;48506;48.202;16.274;2023-04-25T02:15:22;11.10;95.90
49124;DHT22;48506;48.202;16.274;2023-04-25T02:17:48;11.00;96.00
49124;DHT22;48506;48.202;16.274;2023-04-25T02:20:14;11.10;96.00
49124;DHT22;48506;48.202;16.274;2023-04-25T02:22:41;11.00;96.20
49124;DHT22;48506;48.202;16.274;2023-04-25T02:25:08;10.90;96.20
49124;DHT22;48506;48.202;16.274;2023-04-25T02:27:35;10.90;96.40
49124;DHT22;48506;48.202;16.274;2023-04-25T02:30:01;10.90;96.20
49124;DHT22;48506;48.202;16.274;2023-04-25T02:32:27;10.90;96.30
49124;DHT22;48506;48.202;16.274;2023-04-25T02:34:53;10.90;96.30
49124;DHT22;48506;48.202;16.274;2023-04-25T02:37:19;10.80;96.30
49124;DHT22;48506;48.202;16.274;2023-04-25T02:39:45;10.80;96.30
49124;DHT22;48506;48.202;16.274;2023-04-25T02:42:11;10.80;96.40
49124;DHT22;48506;48.202;16.274;2023-04-25T02:44:37;10.80;96.40
49124;DHT22;48506;48.202;16.274;2023-04-25T02:47:03;10.70;96.50
49124;DHT22;48506;48.202;16.274;2023-04-25T02:49:28;10.70;96.40
49124;DHT22;48506;48.202;16.274;2023-04-25T02:51:54;10.70;96.40
49124;DHT22;48506;48.202;16.274;2023-04-25T02:54:20;10.70;96.30
49124;DHT22;48506;48.202;16.274;2023-04-25T02:56:46;10.70;96.30
49124;DHT22;48506;48.202;16.274;2023-04-25T02:59:12;10.70;96.20
49124;DHT22;48506;48.202;16.274;2023-04-25T03:01:38;10.70;96.30
49124;DHT22;48506;48.202;16.274;2023-04-25T03:04:04;10.60;96.30
49124;DHT22;48506;48.202;16.274;2023-04-25T03:06:29;10.60;96.20
49124;DHT22;48506;48.202;16.274;2023-04-25T03:08:56;10.60;96.40
49124;DHT22;48506;48.202;16.274;2023-04-25T03:11:25;10.50;96.40
49124;DHT22;48506;48.202;16.274;2023-04-25T03:13:51;10.50;96.40
49124;DHT22;48506;48.202;16.274;2023-04-25T03:16:16;10.50;96.40
49124;DHT22;48506;48.202;16.274;2023-04-25T03:18:42;10.50;96.40
49124;DHT22;48506;48.202;16.274;2023-04-25T03:21:08;10.50;96.10
49124;DHT22;48506;48.202;16.274;2023-04-25T03:23:34;10.50;96.10
49124;DHT22;48506;48.202;16.274;2023-04-25T03:26:00;10.50;96.40
49124;DHT22;48506;48.202;16.274;2023-04-25T03:28:26;10.40;96.30
49124;DHT22;48506;48.202;16.274;2023-04-25T03:30:52;10.40;96.30
49124;DHT22;48506;48.202;16.274;2023-04-25T03:33:18;10.40;96.30
49124;DHT22;48506;48.202;16.274;2023-04-25T03:35:43;10.40;96.30
49124;DHT22;48506;48.202;16.274;2023-04-25T03:38:09;10.40;96.60
49124;DHT22;48506;48.202;16.274;2023-04-25T03:40:35;10.30;96.40
49124;DHT22;48506;48.202;16.274;2023-04-25T03:43:01;10.40;96.20
49124;DHT22;48506;48.202;16.274;2023-04-25T03:45:27;10.30;96.20
49124;DHT22;48506;48.202;16.274;2023-04-25T03:47:53;10.30;96.30
49124;DHT22;48506;48.202;16.274;2023-04-25T03:50:19;10.30;96.20
49124;DHT22;48506;48.202;16.274;2023-04-25T03:52:45;10.30;96.10
49124;DHT22;48506;48.202;16.274;2023-04-25T03:55:11;10.20;96.30
49124;DHT22;48506;48.202;16.274;2023-04-25T03:57:36;10.20;96.00
49124;DHT22;48506;48.202;16.274;2023-04-25T04:00:03;10.20;96.10
49124;DHT22;48506;48.202;16.274;2023-04-25T04:02:30;10.20;96.00
49124;DHT22;48506;48.202;16.274;2023-04-25T04:04:56;10.20;96.00
49124;DHT22;48506;48.202;16.274;2023-04-25T04:07:22;10.20;95.80
49124;DHT22;48506;48.202;16.274;2023-04-25T04:09:48;10.20;95.70
49124;DHT22;48506;48.202;16.274;2023-04-25T04:12:14;10.10;95.80
49124;DHT22;48506;48.202;16.274;2023-04-25T04:14:40;10.10;96.10
49124;DHT22;48506;48.202;16.274;2023-04-25T04:17:06;10.10;96.10
49124;DHT22;48506;48.202;16.274;2023-04-25T04:19:32;10.00;95.90
49124;DHT22;48506;48.202;16.274;2023-04-25T04:21:58;10.10;95.90
49124;DHT22;48506;48.202;16.274;2023-04-25T04:24:24;10.10;95.90
49124;DHT22;48506;48.202;16.274;2023-04-25T04:26:50;10.00;95.80
49124;DHT22;48506;48.202;16.274;2023-04-25T04:29:16;10.00;96.00
49124;DHT22;48506;48.202;16.274;2023-04-25T04:31:49;9.90;95.80
49124;DHT22;48506;48.202;16.274;2023-04-25T04:34:16;9.90;96.20
49124;DHT22;48506;48.202;16.274;2023-04-25T04:36:44;9.90;95.80
49124;DHT22;48506;48.202;16.274;2023-04-25T04:39:12;9.90;96.10
49124;DHT22;48506;48.202;16.274;2023-04-25T04:41:39;9.90;96.20
49124;DHT22;48506;48.202;16.274;2023-04-25T04:44:05;9.80;96.00
49124;DHT22;48506;48.202;16.274;2023-04-25T04:46:32;9.80;95.90
49124;DHT22;48506;48.202;16.274;2023-04-25T04:49:06;9.80;95.80
49124;DHT22;48506;48.202;16.274;2023-04-25T04:51:32;9.90;95.90
49124;DHT22;48506;48.202;16.274;2023-04-25T04:53:59;9.80;96.00
49124;DHT22;48506;48.202;16.274;2023-04-25T04:56:29;9.80;96.00
49124;DHT22;48506;48.202;16.274;2023-04-25T04:58:57;9.80;96.10
49124;DHT22;48506;48.202;16.274;2023-04-25T05:01:24;9.80;96.00
49124;DHT22;48506;48.202;16.274;2023-04-25T05:03:52;9.70;96.20
49124;DHT22;48506;48.202;16.274;2023-04-25T05:06:19;9.80;96.00
49124;DHT22;48506;48.202;16.274;2023-04-25T05:08:45;9.80;96.20
49124;DHT22;48506;48.202;16.274;2023-04-25T05:11:11;9.80;96.30
49124;DHT22;48506;48.202;16.274;2023-04-25T05:13:37;9.80;96.30
49124;DHT22;48506;48.202;16.274;2023-04-25T05:16:04;9.80;96.40
49124;DHT22;48506;48.202;16.274;2023-04-25T05:18:31;9.80;96.80
49124;DHT22;48506;48.202;16.274;2023-04-25T05:20:56;9.80;96.60
49124;DHT22;48506;48.202;16.274;2023-04-25T05:23:22;9.80;96.80
49124;DHT22;48506;48.202;16.274;2023-04-25T05:25:50;9.80;97.00
49124;DHT22;48506;48.202;16.274;2023-04-25T05:28:15;9.90;97.20
49124;DHT22;48506;48.202;16.274;2023-04-25T05:30:41;10.00;96.90
49124;DHT22;48506;48.202;16.274;2023-04-25T05:33:07;10.00;96.60
49124;DHT22;48506;48.202;16.274;2023-04-25T05:35:33;10.10;96.50
49124;DHT22;48506;48.202;16.274;2023-04-25T05:37:59;10.20;96.40
49124;DHT22;48506;48.202;16.274;2023-04-25T05:40:25;10.40;96.20
49124;DHT22;48506;48.202;16.274;2023-04-25T05:42:51;10.60;96.00
49124;DHT22;48506;48.202;16.274;2023-04-25T05:45:17;10.70;96.00
49124;DHT22;48506;48.202;16.274;2023-04-25T05:47:43;10.90;96.00
49124;DHT22;48506;48.202;16.274;2023-04-25T05:50:10;11.10;95.30
49124;DHT22;48506;48.202;16.274;2023-04-25T05:52:35;11.20;95.50
49124;DHT22;48506;48.202;16.274;2023-04-25T05:55:03;11.40;95.40
49124;DHT22;48506;48.202;16.274;2023-04-25T05:57:29;11.50;94.80
49124;DHT22;48506;48.202;16.274;2023-04-25T05:59:55;11.60;94.20
49124;DHT22;48506;48.202;16.274;2023-04-25T06:02:22;11.60;94.10
49124;DHT22;48506;48.202;16.274;2023-04-25T06:04:50;11.70;94.20
49124;DHT22;48506;48.202;16.274;2023-04-25T06:07:18;11.90;93.90
49124;DHT22;48506;48.202;16.274;2023-04-25T06:09:46;12.00;93.70
49124;DHT22;48506;48.202;16.274;2023-04-25T06:12:12;12.20;93.50
49124;DHT22;48506;48.202;16.274;2023-04-25T06:14:38;12.20;92.90
49124;DHT22;48506;48.202;16.274;2023-04-25T06:17:04;12.40;93.10
49124;DHT22;48506;48.202;16.274;2023-04-25T06:19:35;12.60;92.80
49124;DHT22;48506;48.202;16.274;2023-04-25T06:22:02;12.80;92.80
49124;DHT22;48506;48.202;16.274;2023-04-25T06:24:28;13.00;92.00
49124;DHT22;48506;48.202;16.274;2023-04-25T06:26:55;13.10;91.70
49124;DHT22;48506;48.202;16.274;2023-04-25T06:29:21;13.20;91.20
49124;DHT22;48506;48.202;16.274;2023-04-25T06:31:47;13.30;91.30
49124;DHT22;48506;48.202;16.274;2023-04-25T06:34:13;13.30;90.80
49124;DHT22;48506;48.202;16.274;2023-04-25T06:36:39;13.30;91.30
49124;DHT22;48506;48.202;16.274;2023-04-25T06:39:08;13.60;90.90
49124;DHT22;48506;48.202;16.274;2023-04-25T06:41:35;13.70;90.50
49124;DHT22;48506;48.202;16.274;2023-04-25T06:44:01;13.80;90.20
49124;DHT22;48506;48.202;16.274;2023-04-25T06:46:27;13.80;90.20
49124;DHT22;48506;48.202;16.274;2023-04-25T06:48:53;13.90;89.00
49124;DHT22;48506;48.202;16.274;2023-04-25T06:51:20;13.90;89.00
49124;DHT22;48506;48.202;16.274;2023-04-25T06:53:47;14.00;89.20
49124;DHT22;48506;48.202;16.274;2023-04-25T06:56:13;14.00;89.50
49124;DHT22;48506;48.202;16.274;2023-04-25T06:58:39;14.10;88.30
49124;DHT22;48506;48.202;16.274;2023-04-25T07:01:06;14.30;88.70
49124;DHT22;48506;48.202;16.274;2023-04-25T07:03:32;14.40;87.80
49124;DHT22;48506;48.202;16.274;2023-04-25T07:06:00;14.40;87.00
49124;DHT22;48506;48.202;16.274;2023-04-25T07:08:26;14.40;86.80
49124;DHT22;48506;48.202;16.274;2023-04-25T07:10:52;14.40;86.50
49124;DHT22;48506;48.202;16.274;2023-04-25T07:13:17;14.50;86.40
49124;DHT22;48506;48.202;16.274;2023-04-25T07:15:43;14.60;87.30
49124;DHT22;48506;48.202;16.274;2023-04-25T07:18:10;14.70;86.50
49124;DHT22;48506;48.202;16.274;2023-04-25T07:20:36;14.80;87.30
49124;DHT22;48506;48.202;16.274;2023-04-25T07:23:02;14.90;86.00
49124;DHT22;48506;48.202;16.274;2023-04-25T07:25:29;15.10;87.30
49124;DHT22;48506;48.202;16.274;2023-04-25T07:27:57;15.30;86.40
49124;DHT22;48506;48.202;16.274;2023-04-25T07:30:24;15.30;84.20
49124;DHT22;48506;48.202;16.274;2023-04-25T07:32:50;15.40;84.00
49124;DHT22;48506;48.202;16.274;2023-04-25T07:35:17;15.50;82.40
49124;DHT22;48506;48.202;16.274;2023-04-25T07:37:43;15.50;83.00
49124;DHT22;48506;48.202;16.274;2023-04-25T07:40:09;15.60;84.30
49124;DHT22;48506;48.202;16.274;2023-04-25T07:42:37;15.70;85.10
49124;DHT22;48506;48.202;16.274;2023-04-25T07:45:04;15.90;82.20
49124;DHT22;48506;48.202;16.274;2023-04-25T07:47:30;16.00;81.40
49124;DHT22;48506;48.202;16.274;2023-04-25T07:49:56;16.10;82.30
49124;DHT22;48506;48.202;16.274;2023-04-25T07:52:23;16.00;81.20
49124;DHT22;48506;48.202;16.274;2023-04-25T07:54:50;16.10;82.30
49124;DHT22;48506;48.202;16.274;2023-04-25T07:57:17;16.30;81.40
49124;DHT22;48506;48.202;16.274;2023-04-25T07:59:45;16.50;82.90
49124;DHT22;48506;48.202;16.274;2023-04-25T08:02:11;16.50;82.40
49124;DHT22;48506;48.202;16.274;2023-04-25T08:04:37;16.50;81.00
49124;DHT22;48506;48.202;16.274;2023-04-25T08:07:03;16.70;81.00
49124;DHT22;48506;48.202;16.274;2023-04-25T08:09:29;16.80;79.80
49124;DHT22;48506;48.202;16.274;2023-04-25T08:12:00;16.80;78.90
49124;DHT22;48506;48.202;16.274;2023-04-25T08:14:26;16.60;79.00
49124;DHT22;48506;48.202;16.274;2023-04-25T08:16:53;16.40;79.80
49124;DHT22;48506;48.202;16.274;2023-04-25T08:19:19;16.10;80.20
49124;DHT22;48506;48.202;16.274;2023-04-25T08:21:45;16.00;80.00
49124;DHT22;48506;48.202;16.274;2023-04-25T08:24:11;16.30;81.20
49124;DHT22;48506;48.202;16.274;2023-04-25T08:26:37;16.60;78.80
49124;DHT22;48506;48.202;16.274;2023-04-25T08:29:04;16.80;79.30
49124;DHT22;48506;48.202;16.274;2023-04-25T08:31:31;17.20;76.90
49124;DHT22;48506;48.202;16.274;2023-04-25T08:33:57;17.40;76.20
49124;DHT22;48506;48.202;16.274;2023-04-25T08:36:23;17.20;74.80
49124;DHT22;48506;48.202;16.274;2023-04-25T08:38:50;16.90;76.50
49124;DHT22;48506;48.202;16.274;2023-04-25T08:41:16;16.80;77.70
49124;DHT22;48506;48.202;16.274;2023-04-25T08:43:43;16.90;77.30
49124;DHT22;48506;48.202;16.274;2023-04-25T08:46:11;17.30;77.70
49124;DHT22;48506;48.202;16.274;2023-04-25T08:48:40;17.50;75.90
49124;DHT22;48506;48.202;16.274;2023-04-25T08:51:10;17.30;74.00
49124;DHT22;48506;48.202;16.274;2023-04-25T08:53:36;16.80;75.60
49124;DHT22;48506;48.202;16.274;2023-04-25T08:56:02;16.40;76.10
49124;DHT22;48506;48.202;16.274;2023-04-25T08:58:29;16.30;78.50
49124;DHT22;48506;48.202;16.274;2023-04-25T09:00:56;16.40;79.00
49124;DHT22;48506;48.202;16.274;2023-04-25T09:03:22;16.50;80.00
49124;DHT22;48506;48.202;16.274;2023-04-25T09:05:48;16.50;79.70
49124;DHT22;48506;48.202;16.274;2023-04-25T09:08:17;16.40;79.20
49124;DHT22;48506;48.202;16.274;2023-04-25T09:10:43;16.20;78.60
49124;DHT22;48506;48.202;16.274;2023-04-25T09:13:11;16.00;80.70
49124;DHT22;48506;48.202;16.274;2023-04-25T09:16:06;15.80;81.50
49124;DHT22;48506;48.202;16.274;2023-04-25T09:18:34;15.50;82.70
49124;DHT22;48506;48.202;16.274;2023-04-25T09:21:08;15.20;82.20
49124;DHT22;48506;48.202;16.274;2023-04-25T09:23:48;15.00;84.40
49124;DHT22;48506;48.202;16.274;2023-04-25T09:26:19;14.60;89.10
49124;DHT22;48506;48.202;16.274;2023-04-25T09:28:46;14.20;90.50
49124;DHT22;48506;48.202;16.274;2023-04-25T09:31:24;13.80;91.30
49124;DHT22;48506;48.202;16.274;2023-04-25T09:33:59;13.60;92.60
49124;DHT22;48506;48.202;16.274;2023-04-25T09:36:27;13.50;93.10
49124;DHT22;48506;48.202;16.274;2023-04-25T09:38:54;13.60;93.20
49124;DHT22;48506;48.202;16.274;2023-04-25T09:41:24;13.70;93.20
49124;DHT22;48506;48.202;16.274;2023-04-25T09:43:51;13.80;93.10
49124;DHT22;48506;48.202;16.274;2023-04-25T09:46:18;13.60;92.70
49124;DHT22;48506;48.202;16.274;2023-04-25T09:48:51;13.30;93.10
49124;DHT22;48506;48.202;16.274;2023-04-25T09:51:19;13.10;93.80
49124;DHT22;48506;48.202;16.274;2023-04-25T09:53:46;13.10;93.50
49124;DHT22;48506;48.202;16.274;2023-04-25T09:56:16;13.20;92.90
49124;DHT22;48506;48.202;16.274;2023-04-25T09:58:42;13.20;94.40
49124;DHT22;48506;48.202;16.274;2023-04-25T10:01:11;13.30;94.10
49124;DHT22;48506;48.202;16.274;2023-04-25T10:03:39;13.50;93.90
49124;DHT22;48506;48.202;16.274;2023-04-25T10:06:19;13.60;93.70
49124;DHT22;48506;48.202;16.274;2023-04-25T10:08:50;13.60;93.40
49124;DHT22;48506;48.202;16.274;2023-04-25T10:11:18;13.60;93.90
49124;DHT22;48506;48.202;16.274;2023-04-25T10:13:44;13.70;94.10
49124;DHT22;48506;48.202;16.274;2023-04-25T10:16:11;13.80;94.60
49124;DHT22;48506;48.202;16.274;2023-04-25T10:18:37;13.80;92.20
49124;DHT22;48506;48.202;16.274;2023-04-25T10:21:05;13.60;91.30
49124;DHT22;48506;48.202;16.274;2023-04-25T10:23:33;13.50;90.60
49124;DHT22;48506;48.202;16.274;2023-04-25T10:26:04;13.20;90.50
49124;DHT22;48506;48.202;16.274;2023-04-25T10:31:27;13.00;92.60
49124;DHT22;48506;48.202;16.274;2023-04-25T10:33:55;13.10;92.50
49124;DHT22;48506;48.202;16.274;2023-04-25T10:36:22;13.30;92.60
49124;DHT22;48506;48.202;16.274;2023-04-25T10:38:50;13.70;91.10
49124;DHT22;48506;48.202;16.274;2023-04-25T10:41:22;14.20;91.60
49124;DHT22;48506;48.202;16.274;2023-04-25T10:43:50;14.90;91.50
49124;DHT22;48506;48.202;16.274;2023-04-25T10:46:27;15.60;90.20
49124;DHT22;48506;48.202;16.274;2023-04-25T10:48:57;16.00;87.70
49124;DHT22;48506;48.202;16.274;2023-04-25T10:51:28;16.30;89.10
49124;DHT22;48506;48.202;16.274;2023-04-25T10:54:04;16.50;89.00
49124;DHT22;48506;48.202;16.274;2023-04-25T10:56:41;16.90;87.10
49124;DHT22;48506;48.202;16.274;2023-04-25T10:59:18;17.60;85.40
49124;DHT22;48506;48.202;16.274;2023-04-25T11:01:51;17.80;85.40
49124;DHT22;48506;48.202;16.274;2023-04-25T11:04:21;18.10;82.20
49124;DHT22;48506;48.202;16.274;2023-04-25T11:09:28;18.60;79.20
49124;DHT22;48506;48.202;16.274;2023-04-25T11:11:55;18.40;79.70
49124;DHT22;48506;48.202;16.274;2023-04-25T11:14:22;18.40;79.70
49124;DHT22;48506;48.202;16.274;2023-04-25T11:16:53;18.80;78.30
49124;DHT22;48506;48.202;16.274;2023-04-25T11:19:22;18.70;77.50
49124;DHT22;48506;48.202;16.274;2023-04-25T11:21:49;18.30;76.30
49124;DHT22;48506;48.202;16.274;2023-04-25T11:24:16;17.80;76.30
49124;DHT22;48506;48.202;16.274;2023-04-25T11:26:43;17.10;78.80
49124;DHT22;48506;48.202;16.274;2023-04-25T11:29:13;16.10;84.20
49124;DHT22;48506;48.202;16.274;2023-04-25T11:31:42;14.70;88.70
49124;DHT22;48506;48.202;16.274;2023-04-25T11:34:08;13.70;90.90
49124;DHT22;48506;48.202;16.274;2023-04-25T11:36:34;12.90;92.20
49124;DHT22;48506;48.202;16.274;2023-04-25T11:39:02;12.30;94.00
49124;DHT22;48506;48.202;16.274;2023-04-25T11:41:30;12.00;94.40
49124;DHT22;48506;48.202;16.274;2023-04-25T11:43:56;11.80;94.70
49124;DHT22;48506;48.202;16.274;2023-04-25T11:46:22;11.70;95.50
49124;DHT22;48506;48.202;16.274;2023-04-25T11:48:48;11.70;96.40
49124;DHT22;48506;48.202;16.274;2023-04-25T11:51:16;11.60;96.30
49124;DHT22;48506;48.202;16.274;2023-04-25T11:53:44;11.80;97.10
49124;DHT22;48506;48.202;16.274;2023-04-25T11:56:11;12.00;97.00
49124;DHT22;48506;48.202;16.274;2023-04-25T11:59:02;12.50;98.70
49124;DHT22;48506;48.202;16.274;2023-04-25T12:01:34;13.20;97.80
49124;DHT22;48506;48.202;16.274;2023-04-25T12:04:20;13.60;97.10
49124;DHT22;48506;48.202;16.274;2023-04-25T12:06:48;14.00;97.00
49124;DHT22;48506;48.202;16.274;2023-04-25T12:09:27;14.50;96.40
49124;DHT22;48506;48.202;16.274;2023-04-25T12:11:57;15.10;95.10
49124;DHT22;48506;48.202;16.274;2023-04-25T12:14:28;15.50;93.80
49124;DHT22;48506;48.202;16.274;2023-04-25T12:16:58;15.70;93.60
49124;DHT22;48506;48.202;16.274;2023-04-25T12:19:24;15.90;90.50
49124;DHT22;48506;48.202;16.274;2023-04-25T12:21:53;15.70;91.90
49124;DHT22;48506;48.202;16.274;2023-04-25T12:24:23;15.50;91.20
49124;DHT22;48506;48.202;16.274;2023-04-25T12:26:58;15.50;92.40
49124;DHT22;48506;48.202;16.274;2023-04-25T12:29:26;15.90;91.40
49124;DHT22;48506;48.202;16.274;2023-04-25T12:31:54;16.30;92.40
49124;DHT22;48506;48.202;16.274;2023-04-25T12:34:20;16.60;90.40
49124;DHT22;48506;48.202;16.274;2023-04-25T12:36:48;16.70;90.10
49124;DHT22;48506;48.202;16.274;2023-04-25T12:39:15;16.80;90.30
49124;DHT22;48506;48.202;16.274;2023-04-25T12:41:42;16.60;85.70
49124;DHT22;48506;48.202;16.274;2023-04-25T12:44:09;16.40;89.30
49124;DHT22;48506;48.202;16.274;2023-04-25T12:46:37;16.70;90.10
49124;DHT22;48506;48.202;16.274;2023-04-25T12:49:05;17.00;87.40
49124;DHT22;48506;48.202;16.274;2023-04-25T12:51:35;17.40;86.80
49124;DHT22;48506;48.202;16.274;2023-04-25T12:54:03;17.70;83.30
49124;DHT22;48506;48.202;16.274;2023-04-25T12:56:30;18.10;83.30
49124;DHT22;48506;48.202;16.274;2023-04-25T12:58:57;18.30;80.60
49124;DHT22;48506;48.202;16.274;2023-04-25T13:01:24;18.20;80.80
49124;DHT22;48506;48.202;16.274;2023-04-25T13:03:51;18.20;78.50
49124;DHT22;48506;48.202;16.274;2023-04-25T13:06:18;18.00;79.90
49124;DHT22;48506;48.202;16.274;2023-04-25T13:08:45;17.90;81.00
49124;DHT22;48506;48.202;16.274;2023-04-25T13:11:12;18.00;76.70
49124;DHT22;48506;48.202;16.274;2023-04-25T13:13:38;18.00;79.30
49124;DHT22;48506;48.202;16.274;2023-04-25T13:16:06;18.40;78.70
49124;DHT22;48506;48.202;16.274;2023-04-25T13:18:33;18.60;74.10
49124;DHT22;48506;48.202;16.274;2023-04-25T13:21:00;18.50;73.00
49124;DHT22;48506;48.202;16.274;2023-04-25T13:23:27;18.30;75.10
49124;DHT22;48506;48.202;16.274;2023-04-25T13:25:55;18.30;73.40
49124;DHT22;48506;48.202;16.274;2023-04-25T13:28:26;18.30;74.50
49124;DHT22;48506;48.202;16.274;2023-04-25T13:30:53;18.40;74.80
49124;DHT22;48506;48.202;16.274;2023-04-25T13:33:20;18.50;74.70
49124;DHT22;48506;48.202;16.274;2023-04-25T13:35:48;18.60;76.50
49124;DHT22;48506;48.202;16.274;2023-04-25T13:38:23;18.80;74.80
49124;DHT22;48506;48.202;16.274;2023-04-25T13:40:50;19.00;73.30
49124;DHT22;48506;48.202;16.274;2023-04-25T13:43:19;19.10;70.50
49124;DHT22;48506;48.202;16.274;2023-04-25T13:45:46;18.80;71.10
49124;DHT22;48506;48.202;16.274;2023-04-25T13:48:12;18.40;73.10
49124;DHT22;48506;48.202;16.274;2023-04-25T13:50:39;18.00;73.70
49124;DHT22;48506;48.202;16.274;2023-04-25T13:53:05;17.50;73.10
49124;DHT22;48506;48.202;16.274;2023-04-25T13:55:31;17.20;74.70
49124;DHT22;48506;48.202;16.274;2023-04-25T13:57:58;17.20;73.80
49124;DHT22;48506;48.202;16.274;2023-04-25T14:00:26;17.30;73.80
49124;DHT22;48506;48.202;16.274;2023-04-25T14:02:52;17.50;72.50
49124;DHT22;48506;48.202;16.274;2023-04-25T14:05:19;17.50;74.20
49124;DHT22;48506;48.202;16.274;2023-04-25T14:07:45;17.50;72.70
49124;DHT22;48506;48.202;16.274;2023-04-25T14:10:11;17.60;74.20
49124;DHT22;48506;48.202;16.274;2023-04-25T14:12:37;17.50;74.60
49124;DHT22;48506;48.202;16.274;2023-04-25T14:15:03;17.50;72.70
49124;DHT22;48506;48.202;16.274;2023-04-25T14:17:30;17.30;74.20
49124;DHT22;48506;48.202;16.274;2023-04-25T14:19:56;17.20;73.70
49124;DHT22;48506;48.202;16.274;2023-04-25T14:22:22;17.20;73.50
49124;DHT22;48506;48.202;16.274;2023-04-25T14:24:50;17.00;75.20
49124;DHT22;48506;48.202;16.274;2023-04-25T14:27:16;16.80;77.10
49124;DHT22;48506;48.202;16.274;2023-04-25T14:29:41;16.50;78.50
49124;DHT22;48506;48.202;16.274;2023-04-25T14:32:09;16.10;80.60
49124;DHT22;48506;48.202;16.274;2023-04-25T14:34:36;15.80;83.80
49124;DHT22;48506;48.202;16.274;2023-04-25T14:37:03;15.60;82.20
49124;DHT22;48506;48.202;16.274;2023-04-25T14:39:29;15.50;83.90
49124;DHT22;48506;48.202;16.274;2023-04-25T14:41:56;15.50;84.10
49124;DHT22;48506;48.202;16.274;2023-04-25T14:44:23;15.70;83.20
49124;DHT22;48506;48.202;16.274;2023-04-25T14:46:50;16.00;83.70
49124;DHT22;48506;48.202;16.274;2023-04-25T14:49:17;16.40;80.00
49124;DHT22;48506;48.202;16.274;2023-04-25T14:51:43;16.70;81.10
49124;DHT22;48506;48.202;16.274;2023-04-25T14:54:09;16.70;78.10
49124;DHT22;48506;48.202;16.274;2023-04-25T14:56:36;16.50;79.90
49124;DHT22;48506;48.202;16.274;2023-04-25T14:59:02;16.70;79.00
49124;DHT22;48506;48.202;16.274;2023-04-25T15:01:28;16.80;77.70
49124;DHT22;48506;48.202;16.274;2023-04-25T15:03:55;16.70;77.50
49124;DHT22;48506;48.202;16.274;2023-04-25T15:06:21;16.70;78.40
49124;DHT22;48506;48.202;16.274;2023-04-25T15:08:47;16.80;78.10
49124;DHT22;48506;48.202;16.274;2023-04-25T15:11:13;16.80;78.30
49124;DHT22;48506;48.202;16.274;2023-04-25T15:13:39;16.70;79.70
49124;DHT22;48506;48.202;16.274;2023-04-25T15:16:07;16.70;79.40
49124;DHT22;48506;48.202;16.274;2023-04-25T15:18:33;16.80;79.30
49124;DHT22;48506;48.202;16.274;2023-04-25T15:20:59;17.50;77.60
49124;DHT22;48506;48.202;16.274;2023-04-25T15:23:25;18.30;74.00